Time;durP1;ratioP1;P1;durP2;ratioP2;P2;SDS_P1;SDS_P2;PMS_P1;PMS_P2;Temp;Humidity;BMP_temperature;BMP_pressure;BME280_temperature;BME280_humidity;BME280_pressure;Samples;Min_cycle;Max_cycle;Signal;HPM_P1;HPM_P2
2022/09/21 00:00:25;;;;;;;5.47;3.00;;;11.00;99.90;;;;;;5053403;28;20287;-69
2022/09/21 00:02:55;;;;;;;4.90;2.67;;;11.00;99.90;;;;;;5053278;28;20686;-69
2022/09/21 00:05:22;;;;;;;4.33;3.03;;;11.00;99.90;;;;;;5053071;28;20275;-69
2022/09/21 00:07:49;;;;;;;3.73;2.90;;;11.00;99.90;;;;;;5053161;28;20574;-69
2022/09/21 00:10:17;;;;;;;2.93;2.63;;;11.00;99.90;;;;;;5052691;28;20212;-68
2022/09/21 00:12:46;;;;;;;4.40;3.10;;;11.00;99.90;;;;;;5053143;28;20251;-69
2022/09/21 00:15:13;;;;;;;4.13;3.00;;;11.00;99.90;;;;;;5052484;28;20213;-68
2022/09/21 00:17:41;;;;;;;2.80;2.60;;;11.00;99.90;;;;;;5053097;28;20206;-70
2022/09/21 00:20:09;;;;;;;5.20;3.20;;;11.00;99.90;;;;;;5052355;28;20212;-70
2022/09/21 00:22:36;;;;;;;3.27;2.87;;;10.90;99.90;;;;;;5052488;28;20201;-69
2022/09/21 00:25:04;;;;;;;4.43;2.63;;;10.80;99.90;;;;;;5050493;28;20216;-69
2022/09/21 00:27:32;;;;;;;5.53;2.73;;;10.80;99.90;;;;;;5052340;28;20782;-70
2022/09/21 00:30:01;;;;;;;4.10;2.80;;;10.80;99.90;;;;;;5052640;28;20237;-71
2022/09/21 00:32:30;;;;;;;5.50;3.10;;;10.70;99.90;;;;;;5052668;28;20205;-69
2022/09/21 00:35:00;;;;;;;4.40;3.00;;;10.70;99.90;;;;;;5051959;28;20265;-69
2022/09/21 00:37:28;;;;;;;3.00;2.80;;;10.60;99.90;;;;;;5052540;28;20267;-68
2022/09/21 00:39:55;;;;;;;3.20;2.37;;;10.60;99.90;;;;;;5052066;28;20227;-69
2022/09/21 00:42:25;;;;;;;3.23;2.70;;;10.60;99.90;;;;;;5052577;28;20208;-69
2022/09/21 00:44:52;;;;;;;3.63;3.20;;;10.60;99.90;;;;;;5051782;28;20208;-69
2022/09/21 00:47:22;;;;;;;2.93;2.63;;;10.50;99.90;;;;;;5067758;28;20572;-69
2022/09/21 00:49:54;;;;;;;2.70;2.50;;;10.50;99.90;;;;;;5072239;28;20536;-70
2022/09/21 00:52:24;;;;;;;3.53;2.70;;;10.50;99.90;;;;;;5072412;28;20195;-69
2022/09/21 00:54:54;;;;;;;5.73;2.90;;;10.50;99.90;;;;;;5071937;28;20657;-69
2022/09/21 00:57:25;;;;;;;4.47;2.70;;;10.50;99.90;;;;;;5072290;28;20213;-69
2022/09/21 00:59:55;;;;;;;3.50;3.10;;;10.50;99.90;;;;;;5072035;28;20555;-70
2022/09/21 01:02:22;;;;;;;3.23;2.70;;;10.50;99.90;;;;;;5071895;28;20634;-69
2022/09/21 01:04:53;;;;;;;4.53;3.10;;;10.50;99.90;;;;;;5051733;28;20228;-69
2022/09/21 01:07:27;;;;;;;4.90;2.87;;;10.50;99.90;;;;;;5051627;28;20259;-68
2022/09/21 01:09:58;;;;;;;4.20;2.90;;;10.50;99.90;;;;;;5051777;28;20532;-71
2022/09/21 01:12:38;;;;;;;4.30;3.00;;;10.50;99.90;;;;;;5051714;28;20189;-68
2022/09/21 01:15:19;;;;;;;3.10;2.80;;;10.60;99.90;;;;;;5051744;28;20414;-69
2022/09/21 01:17:53;;;;;;;3.93;2.93;;;10.60;99.90;;;;;;5051403;28;20548;-69
2022/09/21 01:20:44;;;;;;;6.13;3.17;;;10.60;99.90;;;;;;5059129;28;20208;-69
2022/09/21 01:23:33;;;;;;;3.23;2.90;;;10.60;99.90;;;;;;5053983;28;20238;-71
2022/09/21 01:26:10;;;;;;;3.17;2.87;;;10.60;99.90;;;;;;5071481;28;20185;-69
2022/09/21 01:29:06;;;;;;;3.30;2.93;;;10.70;99.90;;;;;;5071586;28;20188;-70
2022/09/21 01:31:39;;;;;;;4.90;3.20;;;10.70;99.90;;;;;;5071223;28;20262;-68
2022/09/21 01:34:12;;;;;;;4.70;3.20;;;10.70;99.90;;;;;;5071060;28;20286;-69
2022/09/21 01:36:42;;;;;;;3.80;2.87;;;10.60;99.90;;;;;;5070636;28;20290;-68
2022/09/21 01:39:13;;;;;;;4.80;3.23;;;10.60;99.90;;;;;;5072220;28;20197;-68
2022/09/21 01:41:42;;;;;;;3.60;2.73;;;10.60;99.90;;;;;;5071090;28;20189;-68
2022/09/21 01:44:14;;;;;;;3.80;3.00;;;10.60;99.90;;;;;;5071434;28;20220;-68
2022/09/21 01:46:41;;;;;;;4.10;3.20;;;10.70;99.90;;;;;;5071418;28;20189;-67
2022/09/21 01:49:15;;;;;;;3.67;2.93;;;10.60;99.90;;;;;;5071467;28;20211;-67
2022/09/21 01:51:46;;;;;;;4.53;3.20;;;10.60;99.90;;;;;;5071362;28;20196;-67
2022/09/21 01:54:18;;;;;;;3.73;3.07;;;10.60;99.90;;;;;;5064448;28;20205;-68
2022/09/21 01:56:50;;;;;;;5.13;3.23;;;10.60;99.90;;;;;;5050977;28;20213;-68
2022/09/21 01:59:23;;;;;;;4.67;3.40;;;10.50;99.90;;;;;;5050992;28;20200;-68
2022/09/21 02:01:56;;;;;;;5.40;3.00;;;10.50;99.90;;;;;;5051045;28;20194;-69
2022/09/21 02:04:23;;;;;;;5.00;3.47;;;10.50;99.90;;;;;;5051320;28;20189;-67
2022/09/21 02:06:51;;;;;;;3.90;3.40;;;10.50;99.90;;;;;;5051271;28;20213;-68
2022/09/21 02:09:18;;;;;;;4.27;3.43;;;10.50;99.90;;;;;;5051360;28;20595;-68
2022/09/21 02:11:45;;;;;;;4.27;3.40;;;10.60;99.90;;;;;;5051904;28;20217;-68
2022/09/21 02:14:17;;;;;;;6.73;3.70;;;10.50;99.90;;;;;;5051667;28;20213;-68
2022/09/21 02:16:55;;;;;;;3.97;3.57;;;10.50;99.90;;;;;;5051225;28;20302;-68
2022/09/21 02:19:33;;;;;;;4.93;3.50;;;10.50;99.90;;;;;;5051505;28;20204;-68
2022/09/21 02:22:05;;;;;;;5.33;3.30;;;10.50;99.90;;;;;;5050950;28;20190;-68
2022/09/21 02:24:41;;;;;;;5.37;3.37;;;10.50;99.90;;;;;;5051128;28;20205;-68
2022/09/21 02:27:18;;;;;;;4.43;3.47;;;10.50;99.90;;;;;;5050916;28;20196;-69
2022/09/21 02:29:50;;;;;;;6.63;3.50;;;10.50;99.90;;;;;;5070249;28;20606;-68
2022/09/21 02:32:25;;;;;;;4.83;3.43;;;10.50;99.90;;;;;;5071288;28;20255;-68
2022/09/21 02:34:56;;;;;;;4.43;3.23;;;10.50;99.90;;;;;;5072474;28;20657;-68
2022/09/21 02:37:30;;;;;;;3.50;3.20;;;10.50;99.90;;;;;;5074895;28;20302;-68
2022/09/21 02:40:01;;;;;;;5.27;3.50;;;10.50;99.90;;;;;;5074407;28;20189;-69
2022/09/21 02:42:32;;;;;;;5.27;3.40;;;10.50;99.90;;;;;;5075281;28;20250;-68
2022/09/21 02:45:04;;;;;;;3.50;3.20;;;10.50;99.90;;;;;;5074207;28;20204;-69
2022/09/21 02:47:38;;;;;;;3.83;3.40;;;10.60;99.90;;;;;;5074401;28;20185;-68
2022/09/21 02:50:09;;;;;;;6.33;3.67;;;10.60;99.90;;;;;;5074984;28;20654;-68
2022/09/21 02:52:40;;;;;;;5.00;3.53;;;10.60;99.90;;;;;;5074095;28;20272;-68
2022/09/21 02:55:08;;;;;;;4.00;3.30;;;10.60;99.90;;;;;;5074725;28;20189;-67
2022/09/21 02:57:36;;;;;;;3.70;3.20;;;10.60;99.90;;;;;;5074383;28;20668;-68
2022/09/21 03:00:05;;;;;;;3.57;3.07;;;10.70;99.90;;;;;;5074477;28;20204;-69
2022/09/21 03:02:38;;;;;;;4.07;2.87;;;10.70;99.90;;;;;;5073277;28;20729;-69
2022/09/21 03:05:06;;;;;;;4.70;3.30;;;10.70;99.90;;;;;;5074232;28;20193;-69
2022/09/21 03:07:33;;;;;;;3.73;3.00;;;10.70;99.90;;;;;;5074343;28;20287;-68
2022/09/21 03:10:00;;;;;;;3.83;3.10;;;10.70;99.90;;;;;;5074485;28;20311;-67
2022/09/21 03:12:27;;;;;;;3.47;3.17;;;10.70;99.90;;;;;;5074403;28;20231;-68
2022/09/21 03:14:54;;;;;;;4.87;3.00;;;10.70;99.90;;;;;;5074288;28;20204;-68
2022/09/21 03:17:21;;;;;;;3.67;3.17;;;10.70;99.90;;;;;;5074115;28;20260;-70
2022/09/21 03:19:53;;;;;;;6.33;3.27;;;10.60;99.90;;;;;;5068863;28;20197;-69
2022/09/21 03:22:21;;;;;;;3.70;3.40;;;10.60;99.90;;;;;;5054183;28;20614;-68
2022/09/21 03:24:48;;;;;;;3.90;3.23;;;10.60;99.90;;;;;;5053522;28;20300;-67
2022/09/21 03:27:16;;;;;;;5.10;3.70;;;10.60;99.90;;;;;;5054082;28;20315;-69
2022/09/21 03:29:43;;;;;;;4.00;3.40;;;10.50;99.90;;;;;;5053425;28;20239;-69
2022/09/21 03:32:10;;;;;;;4.73;3.50;;;10.50;99.90;;;;;;5053205;28;20198;-68
2022/09/21 03:34:36;;;;;;;3.43;3.13;;;10.50;99.90;;;;;;5053365;28;20225;-68
2022/09/21 03:37:07;;;;;;;3.83;3.30;;;10.50;99.90;;;;;;5067145;28;20316;-68
2022/09/21 03:39:35;;;;;;;4.27;3.40;;;10.50;99.90;;;;;;5073472;28;20199;-68
2022/09/21 03:42:03;;;;;;;3.23;2.90;;;10.50;99.90;;;;;;5074071;28;20602;-68
2022/09/21 03:44:29;;;;;;;4.87;3.23;;;10.50;99.90;;;;;;5073590;28;20207;-68
2022/09/21 03:46:57;;;;;;;6.67;3.33;;;10.50;99.90;;;;;;5072585;28;20299;-67
2022/09/21 03:49:23;;;;;;;3.30;2.93;;;10.50;99.90;;;;;;5073793;28;20211;-68
2022/09/21 03:51:50;;;;;;;3.60;3.10;;;10.40;99.90;;;;;;5057747;28;20288;-69
2022/09/21 03:54:19;;;;;;;5.13;3.37;;;10.40;99.90;;;;;;5068178;28;20212;-68
2022/09/21 03:56:46;;;;;;;5.23;3.20;;;10.40;99.90;;;;;;5073221;28;20239;-68
2022/09/21 03:59:12;;;;;;;4.17;3.00;;;10.40;99.90;;;;;;5056896;28;20293;-68
2022/09/21 04:01:39;;;;;;;4.30;2.97;;;10.30;99.90;;;;;;5052481;28;20212;-67
2022/09/21 04:04:06;;;;;;;3.10;2.80;;;10.30;99.90;;;;;;5052890;28;20252;-69
2022/09/21 04:06:33;;;;;;;4.03;3.30;;;10.40;99.90;;;;;;5052743;28;20292;-67
2022/09/21 04:09:01;;;;;;;5.43;3.23;;;10.30;99.90;;;;;;5053072;28;20220;-68
2022/09/21 04:11:31;;;;;;;3.33;3.03;;;10.30;99.90;;;;;;5056887;28;20666;-68
2022/09/21 04:13:58;;;;;;;5.30;3.60;;;10.40;99.90;;;;;;5051834;28;20202;-68
2022/09/21 04:16:26;;;;;;;5.17;3.90;;;10.30;99.90;;;;;;5052401;28;20205;-67
2022/09/21 04:18:53;;;;;;;4.67;3.50;;;10.40;99.90;;;;;;5052545;28;20208;-68
2022/09/21 04:21:21;;;;;;;6.20;3.53;;;10.40;99.90;;;;;;5052563;28;20201;-68
2022/09/21 04:23:49;;;;;;;5.00;3.83;;;10.30;99.90;;;;;;5052882;28;20670;-67
2022/09/21 04:26:21;;;;;;;4.77;3.47;;;10.40;99.90;;;;;;5052842;28;20304;-68
2022/09/21 04:28:49;;;;;;;4.90;3.70;;;10.30;99.90;;;;;;5053129;28;20239;-68
2022/09/21 04:31:16;;;;;;;5.33;3.67;;;10.40;99.90;;;;;;5052404;28;20241;-67
2022/09/21 04:33:43;;;;;;;4.57;3.40;;;10.40;99.90;;;;;;5052643;28;20247;-68
2022/09/21 04:36:10;;;;;;;3.97;3.40;;;10.40;99.90;;;;;;5052645;28;20281;-68
2022/09/21 04:38:37;;;;;;;4.70;3.37;;;10.30;99.90;;;;;;5051899;28;20316;-69
2022/09/21 04:41:04;;;;;;;5.20;3.67;;;10.30;99.90;;;;;;5052206;28;20231;-69
2022/09/21 04:43:31;;;;;;;3.60;3.30;;;10.30;99.90;;;;;;5052496;28;20204;-69
2022/09/21 04:46:04;;;;;;;5.30;3.90;;;10.20;99.90;;;;;;5052245;28;20202;-68
2022/09/21 04:48:30;;;;;;;5.10;3.57;;;10.20;99.90;;;;;;5051997;28;20201;-68
2022/09/21 04:50:57;;;;;;;4.60;3.73;;;10.20;99.90;;;;;;5052258;28;20301;-69
2022/09/21 04:53:24;;;;;;;5.20;3.77;;;10.20;99.90;;;;;;5052258;28;20232;-68
2022/09/21 04:55:51;;;;;;;5.03;3.73;;;10.30;99.90;;;;;;5052256;28;20239;-67
2022/09/21 04:58:18;;;;;;;4.20;3.63;;;10.30;99.90;;;;;;5050886;28;20267;-68
2022/09/21 05:00:45;;;;;;;5.73;4.10;;;10.30;99.90;;;;;;5052510;28;20291;-68
2022/09/21 05:03:13;;;;;;;5.10;3.60;;;10.30;99.90;;;;;;5052029;28;20239;-69
2022/09/21 05:05:45;;;;;;;4.27;3.70;;;10.40;99.90;;;;;;5052063;28;20225;-68
2022/09/21 05:08:12;;;;;;;4.63;3.67;;;10.40;99.90;;;;;;5051805;28;20225;-68
2022/09/21 05:10:38;;;;;;;3.97;3.33;;;10.40;99.90;;;;;;5051707;28;20304;-67
2022/09/21 05:13:05;;;;;;;4.17;3.60;;;10.40;99.90;;;;;;5051721;28;20271;-68
2022/09/21 05:15:32;;;;;;;3.50;3.20;;;10.40;99.90;;;;;;5051547;28;20309;-67
2022/09/21 05:17:59;;;;;;;5.63;3.17;;;10.50;99.90;;;;;;5052652;28;20315;-67
2022/09/21 05:20:27;;;;;;;4.30;3.20;;;10.50;99.90;;;;;;5051475;28;20209;-68
2022/09/21 05:22:54;;;;;;;3.67;3.00;;;10.50;99.90;;;;;;5051765;28;20603;-68
2022/09/21 05:25:21;;;;;;;3.90;3.40;;;10.50;99.90;;;;;;5051258;28;20212;-68
2022/09/21 05:27:48;;;;;;;5.40;3.37;;;10.50;99.90;;;;;;5051829;28;20211;-68
2022/09/21 05:30:15;;;;;;;4.13;3.27;;;10.50;99.90;;;;;;5050609;28;20225;-67
2022/09/21 05:32:48;;;;;;;3.40;3.10;;;10.40;99.90;;;;;;5050355;28;20620;-68
2022/09/21 05:35:26;;;;;;;3.40;3.07;;;10.50;99.90;;;;;;5048203;28;20711;-69
2022/09/21 05:38:01;;;;;;;4.73;3.20;;;10.50;99.90;;;;;;5050049;28;20295;-69
2022/09/21 05:40:28;;;;;;;5.67;3.20;;;10.50;99.90;;;;;;5050211;28;20799;-68
2022/09/21 05:42:56;;;;;;;4.50;3.10;;;10.50;99.90;;;;;;5047777;28;20699;-67
2022/09/21 05:45:23;;;;;;;3.50;3.20;;;10.50;99.90;;;;;;5050002;28;20228;-68
2022/09/21 05:47:59;;;;;;;4.33;3.10;;;10.50;99.90;;;;;;5050206;28;20723;-68
2022/09/21 05:50:40;;;;;;;4.10;3.10;;;10.50;99.90;;;;;;5050281;28;20284;-69
2022/09/21 05:53:23;;;;;;;3.27;2.50;;;10.50;99.90;;;;;;5049560;28;20715;-69
2022/09/21 05:55:56;;;;;;;3.13;2.83;;;10.50;99.90;;;;;;5049480;28;20568;-69
2022/09/21 05:58:32;;;;;;;3.60;2.70;;;10.50;99.90;;;;;;5049954;28;20241;-69
2022/09/21 06:01:13;;;;;;;3.10;2.80;;;10.50;99.90;;;;;;5048228;28;20280;-70
2022/09/21 06:03:42;;;;;;;4.63;3.10;;;10.60;99.90;;;;;;5051047;28;20296;-69
2022/09/21 06:06:09;;;;;;;4.33;3.27;;;10.70;99.90;;;;;;5050987;28;20239;-68
2022/09/21 06:08:37;;;;;;;5.80;3.33;;;10.80;99.90;;;;;;5051570;28;20223;-70
2022/09/21 06:11:04;;;;;;;5.33;3.00;;;10.90;99.90;;;;;;5054417;28;20244;-68
2022/09/21 06:13:31;;;;;;;4.63;3.00;;;10.90;99.90;;;;;;5055111;28;20738;-69
2022/09/21 06:16:02;;;;;;;4.67;2.80;;;11.00;99.90;;;;;;5055558;28;20758;-70
2022/09/21 06:18:28;;;;;;;4.73;3.00;;;11.10;99.90;;;;;;5055152;28;20228;-69
2022/09/21 06:20:55;;;;;;;3.20;2.63;;;11.10;99.90;;;;;;5054762;28;20204;-69
2022/09/21 06:23:22;;;;;;;2.87;2.60;;;11.20;99.90;;;;;;5054889;28;20251;-69
2022/09/21 06:25:53;;;;;;;3.37;2.50;;;11.20;99.90;;;;;;5057998;28;20208;-70
2022/09/21 06:28:20;;;;;;;2.77;2.40;;;11.20;99.90;;;;;;5074550;28;20185;-70
2022/09/21 06:30:51;;;;;;;3.80;2.80;;;11.20;99.90;;;;;;5075520;28;20232;-69
2022/09/21 06:33:20;;;;;;;3.17;2.77;;;11.20;99.90;;;;;;5074785;28;20270;-68
2022/09/21 06:35:53;;;;;;;2.70;2.50;;;11.30;99.90;;;;;;5075024;28;20595;-69
2022/09/21 06:38:20;;;;;;;3.47;2.90;;;11.20;99.90;;;;;;5074302;28;20216;-69
2022/09/21 06:40:47;;;;;;;3.23;2.67;;;11.20;99.90;;;;;;5075019;28;20596;-68
2022/09/21 06:43:15;;;;;;;4.70;2.80;;;11.20;99.90;;;;;;5073330;28;20291;-71
2022/09/21 06:45:42;;;;;;;4.07;2.67;;;11.20;99.90;;;;;;5074475;28;20209;-68
2022/09/21 06:48:09;;;;;;;2.90;2.60;;;11.10;99.90;;;;;;5057452;28;20288;-68
2022/09/21 06:50:36;;;;;;;3.33;2.80;;;11.20;99.90;;;;;;5052290;28;20248;-69
2022/09/21 06:53:04;;;;;;;3.10;2.80;;;11.20;99.90;;;;;;5054271;28;20236;-68
2022/09/21 06:55:31;;;;;;;3.93;2.53;;;11.20;99.90;;;;;;5054568;28;20305;-68
2022/09/21 06:58:01;;;;;;;3.83;2.93;;;11.30;99.90;;;;;;5053719;28;20300;-68
2022/09/21 07:00:30;;;;;;;3.10;2.63;;;11.20;99.90;;;;;;5061380;28;20216;-71
2022/09/21 07:02:57;;;;;;;3.50;2.60;;;11.20;99.90;;;;;;5054297;28;20292;-70
2022/09/21 07:05:24;;;;;;;3.50;2.50;;;11.20;99.90;;;;;;5054352;28;20244;-69
2022/09/21 07:07:56;;;;;;;5.43;2.80;;;11.10;99.90;;;;;;5053745;28;20305;-69
2022/09/21 07:10:22;;;;;;;4.60;2.90;;;11.10;99.90;;;;;;5054441;28;20688;-67
2022/09/21 07:12:51;;;;;;;2.97;2.67;;;11.10;99.90;;;;;;5054110;28;20300;-68
2022/09/21 07:15:19;;;;;;;4.17;2.80;;;11.10;99.90;;;;;;5053864;28;20207;-67
2022/09/21 07:17:48;;;;;;;4.13;2.50;;;11.10;99.90;;;;;;5051441;28;20225;-68
2022/09/21 07:20:15;;;;;;;3.33;2.83;;;11.10;99.90;;;;;;5051604;28;20205;-72
2022/09/21 07:22:42;;;;;;;3.37;2.60;;;11.00;99.90;;;;;;5052244;28;20285;-70
2022/09/21 07:25:10;;;;;;;3.37;3.07;;;11.00;99.90;;;;;;5053808;28;20200;-69
2022/09/21 07:27:37;;;;;;;4.73;3.20;;;10.90;99.90;;;;;;5054002;28;20201;-67
2022/09/21 07:30:05;;;;;;;3.10;2.80;;;10.80;99.90;;;;;;5053899;28;20770;-70
2022/09/21 07:32:31;;;;;;;8.73;5.90;;;10.70;99.90;;;;;;5054587;28;20296;-68
2022/09/21 07:35:01;;;;;;;4.40;3.50;;;10.70;99.90;;;;;;5060899;28;20201;-68
2022/09/21 07:37:28;;;;;;;4.93;3.43;;;10.70;99.90;;;;;;5054162;28;20712;-69
2022/09/21 07:39:55;;;;;;;3.53;3.10;;;10.70;99.90;;;;;;5052748;28;20708;-70
2022/09/21 07:42:24;;;;;;;3.77;3.33;;;10.70;99.90;;;;;;5053662;28;20202;-70
2022/09/21 07:44:52;;;;;;;4.53;3.73;;;10.80;99.90;;;;;;5054236;28;20342;-67
2022/09/21 07:47:19;;;;;;;4.33;3.30;;;10.80;99.90;;;;;;5054118;28;20259;-71
2022/09/21 07:49:46;;;;;;;3.90;3.27;;;10.90;99.90;;;;;;5052669;28;20208;-69
2022/09/21 07:52:15;;;;;;;3.90;3.30;;;10.90;99.90;;;;;;5067768;28;20200;-72
2022/09/21 07:54:42;;;;;;;5.57;3.30;;;11.00;99.90;;;;;;5066709;28;20201;-69
2022/09/21 07:59:55;;;;;;;5.43;3.47;;;11.00;99.90;;;;;;5052294;28;20212;-67
2022/09/21 08:02:22;;;;;;;4.57;3.60;;;11.00;99.90;;;;;;5052291;28;20221;-69
2022/09/21 08:04:49;;;;;;;5.50;3.70;;;11.10;99.90;;;;;;5052600;28;20217;-71
2022/09/21 08:07:18;;;;;;;3.20;2.90;;;11.20;99.90;;;;;;5053264;28;20284;-69
2022/09/21 08:09:48;;;;;;;3.83;3.10;;;11.20;99.90;;;;;;5052458;28;20201;-69
2022/09/21 08:12:16;;;;;;;5.93;3.20;;;11.20;99.90;;;;;;5052990;28;20225;-69
2022/09/21 08:14:43;;;;;;;4.70;4.00;;;11.30;99.90;;;;;;5052831;28;20233;-65
2022/09/21 08:17:10;;;;;;;4.10;3.30;;;11.40;99.90;;;;;;5053118;28;20246;-70
2022/09/21 08:19:37;;;;;;;4.73;3.47;;;11.50;99.90;;;;;;5053283;28;20774;-72
2022/09/21 08:22:03;;;;;;;4.73;3.50;;;11.40;99.90;;;;;;5052767;28;20233;-68
2022/09/21 08:24:32;;;;;;;4.37;3.70;;;11.50;99.90;;;;;;5053265;28;20296;-67
2022/09/21 08:26:59;;;;;;;4.93;3.53;;;11.40;99.90;;;;;;5051016;28;20248;-67
2022/09/21 08:29:26;;;;;;;4.63;3.73;;;11.50;99.90;;;;;;5052635;28;20288;-69
2022/09/21 08:31:53;;;;;;;6.80;4.13;;;11.50;99.90;;;;;;5051882;28;20325;-67
2022/09/21 08:34:20;;;;;;;4.60;3.60;;;11.50;99.90;;;;;;5052323;28;20197;-67
2022/09/21 08:36:47;;;;;;;5.17;3.60;;;11.50;99.90;;;;;;5051933;28;20216;-66
2022/09/21 08:39:14;;;;;;;6.70;3.80;;;11.50;99.90;;;;;;5052851;28;20315;-66
2022/09/21 08:42:02;;;;;;;5.87;4.17;;;11.50;99.90;;;;;;5051141;28;20293;-69
2022/09/21 08:44:35;;;;;;;7.70;3.97;;;11.60;99.90;;;;;;5051976;28;20284;-68
2022/09/21 08:47:06;;;;;;;4.17;3.50;;;11.70;99.90;;;;;;5048834;28;20323;-71
2022/09/21 08:49:35;;;;;;;5.33;3.50;;;11.70;99.90;;;;;;5052710;28;20292;-69
2022/09/21 08:52:05;;;;;;;10.00;4.07;;;11.70;99.90;;;;;;5052297;28;20543;-68
2022/09/21 08:54:38;;;;;;;6.93;3.90;;;11.80;99.90;;;;;;5052420;28;20212;-69
2022/09/21 08:57:11;;;;;;;6.93;3.80;;;12.00;99.90;;;;;;5048856;28;20537;-68
2022/09/21 08:59:42;;;;;;;4.53;3.80;;;12.00;99.90;;;;;;5052139;28;20300;-69
2022/09/21 09:02:37;;;;;;;5.63;3.70;;;12.00;99.90;;;;;;5052619;28;20285;-69
2022/09/21 09:05:15;;;;;;;3.83;3.40;;;12.00;99.90;;;;;;5052226;28;20272;-68
2022/09/21 09:08:09;;;;;;;4.23;3.40;;;12.20;99.90;;;;;;5046261;28;20201;-67
2022/09/21 09:10:38;;;;;;;4.63;2.97;;;12.30;99.90;;;;;;5052069;28;20754;-67
2022/09/21 09:13:21;;;;;;;4.50;3.10;;;12.20;99.90;;;;;;5051749;28;20205;-67
2022/09/21 09:15:59;;;;;;;5.07;3.13;;;12.30;99.90;;;;;;5052005;28;20212;-69
2022/09/21 09:18:34;;;;;;;6.57;3.00;;;12.30;99.90;;;;;;5051941;28;20304;-68
2022/09/21 09:21:04;;;;;;;6.20;3.40;;;12.30;99.90;;;;;;5051819;28;20659;-68
2022/09/21 09:23:37;;;;;;;4.53;3.10;;;12.40;99.90;;;;;;5052120;28;20723;-68
2022/09/21 09:26:09;;;;;;;4.57;3.00;;;12.50;99.90;;;;;;5052099;28;20200;-68
2022/09/21 09:28:43;;;;;;;4.50;3.20;;;12.60;99.90;;;;;;5051678;28;20193;-69
2022/09/21 09:31:16;;;;;;;3.40;3.00;;;12.60;99.90;;;;;;5051395;28;20241;-69
2022/09/21 09:33:51;;;;;;;4.83;3.20;;;12.60;99.90;;;;;;5049919;28;20212;-68
2022/09/21 09:36:19;;;;;;;4.30;2.90;;;12.70;99.90;;;;;;5051471;28;20225;-69
2022/09/21 09:38:50;;;;;;;5.17;3.00;;;12.60;99.90;;;;;;5051562;28;20324;-68
2022/09/21 09:41:48;;;;;;;4.30;2.90;;;12.60;99.90;;;;;;5052136;28;20224;-68
2022/09/21 09:44:47;;;;;;;8.97;3.80;;;12.50;99.90;;;;;;5047854;28;20560;-68
2022/09/21 09:47:24;;;;;;;4.87;3.53;;;12.40;99.90;;;;;;5051191;28;20257;-68
2022/09/21 09:50:04;;;;;;;4.83;3.60;;;12.30;99.90;;;;;;5051729;28;20208;-68
2022/09/21 09:52:31;;;;;;;5.70;3.07;;;12.30;99.90;;;;;;5047096;28;20292;-68
2022/09/21 09:54:59;;;;;;;6.27;3.80;;;12.20;99.90;;;;;;5051170;28;20207;-68
2022/09/21 09:57:30;;;;;;;6.07;3.83;;;12.30;99.90;;;;;;5051266;28;20205;-68
2022/09/21 10:00:02;;;;;;;5.37;3.37;;;12.30;99.90;;;;;;5050847;28;20305;-69
2022/09/21 10:02:30;;;;;;;4.33;3.30;;;12.30;99.90;;;;;;5051376;28;20668;-68
2022/09/21 10:05:05;;;;;;;3.63;3.23;;;12.30;99.90;;;;;;5051292;28;20284;-70
2022/09/21 10:07:36;;;;;;;5.70;3.50;;;12.30;99.90;;;;;;5044138;28;20228;-71
2022/09/21 10:10:21;;;;;;;4.90;3.40;;;12.40;99.90;;;;;;5051320;28;20202;-70
2022/09/21 10:12:49;;;;;;;4.50;3.57;;;12.50;99.90;;;;;;5051472;28;20338;-71
2022/09/21 10:15:19;;;;;;;5.60;3.40;;;12.50;99.90;;;;;;5051728;28;20300;-70
2022/09/21 10:17:47;;;;;;;6.10;3.90;;;12.50;99.90;;;;;;5051448;28;20326;-71
2022/09/21 10:20:18;;;;;;;4.63;3.23;;;12.50;99.90;;;;;;5051321;28;20758;-70
2022/09/21 10:22:53;;;;;;;5.10;3.30;;;12.50;99.90;;;;;;5051493;28;20529;-70
2022/09/21 10:25:21;;;;;;;4.87;3.40;;;12.50;99.90;;;;;;5051831;28;20662;-70
2022/09/21 10:27:52;;;;;;;5.77;3.40;;;12.40;99.90;;;;;;5051194;28;20212;-70
2022/09/21 10:30:38;;;;;;;9.43;3.57;;;12.50;99.90;;;;;;5051262;28;20241;-70
2022/09/21 10:33:19;;;;;;;9.53;3.70;;;12.40;99.90;;;;;;5051455;28;20186;-71
2022/09/21 10:35:51;;;;;;;5.87;3.07;;;12.40;99.90;;;;;;5051847;28;20213;-70
2022/09/21 10:38:20;;;;;;;3.77;3.07;;;12.40;99.90;;;;;;5051527;28;20232;-72
2022/09/21 10:40:48;;;;;;;4.13;3.10;;;12.40;99.90;;;;;;5050985;28;20300;-72
2022/09/21 10:43:25;;;;;;;8.43;3.00;;;12.40;99.90;;;;;;5051067;28;20299;-73
2022/09/21 10:45:56;;;;;;;7.30;3.27;;;12.40;99.90;;;;;;5051203;28;20193;-71
2022/09/21 10:48:24;;;;;;;5.07;3.27;;;12.40;99.90;;;;;;5051361;28;20224;-73
2022/09/21 10:50:52;;;;;;;5.83;3.43;;;12.40;99.90;;;;;;5051003;28;20556;-71
2022/09/21 10:53:24;;;;;;;3.50;2.90;;;12.50;99.90;;;;;;5051199;28;20201;-70
2022/09/21 10:55:57;;;;;;;3.60;3.17;;;12.60;99.90;;;;;;5051928;28;20276;-72
2022/09/21 10:58:24;;;;;;;4.33;3.50;;;12.70;99.90;;;;;;5054753;28;20220;-71
2022/09/21 11:00:52;;;;;;;3.97;2.83;;;12.70;99.90;;;;;;5054670;28;20205;-70
2022/09/21 11:03:51;;;;;;;8.53;3.27;;;12.80;99.90;;;;;;5054670;28;20209;-71
2022/09/21 11:06:22;;;;;;;3.40;3.10;;;12.90;99.90;;;;;;5053616;28;20206;-70
2022/09/21 11:08:55;;;;;;;5.27;3.23;;;12.90;99.90;;;;;;5055081;28;20281;-71
2022/09/21 11:11:38;;;;;;;5.90;2.77;;;12.90;99.90;;;;;;5054685;28;20658;-71
2022/09/21 11:14:16;;;;;;;3.10;2.50;;;13.00;99.90;;;;;;5055316;28;20221;-70
2022/09/21 11:16:50;;;;;;;3.03;2.73;;;12.90;99.90;;;;;;5054594;28;20657;-70
2022/09/21 11:19:29;;;;;;;3.23;2.70;;;12.80;99.90;;;;;;5054369;28;20763;-70
2022/09/21 11:22:01;;;;;;;4.33;2.67;;;12.70;99.90;;;;;;5054451;28;20217;-71
2022/09/21 11:24:36;;;;;;;3.97;2.80;;;12.70;99.90;;;;;;5053852;28;20196;-71
2022/09/21 11:27:09;;;;;;;3.27;2.50;;;12.70;99.90;;;;;;5054278;28;20529;-70
2022/09/21 11:29:42;;;;;;;3.70;2.83;;;12.70;99.90;;;;;;5053801;28;20251;-70
2022/09/21 11:32:29;;;;;;;6.13;2.63;;;12.70;99.90;;;;;;5054131;28;20651;-72
2022/09/21 11:35:18;;;;;;;3.77;2.77;;;12.70;99.90;;;;;;5053876;28;20190;-71
2022/09/21 11:37:52;;;;;;;4.10;2.60;;;12.70;99.90;;;;;;5054178;28;20202;-71
2022/09/21 11:40:36;;;;;;;3.33;2.70;;;12.80;99.90;;;;;;5054131;28;20213;-71
2022/09/21 11:43:14;;;;;;;4.20;2.90;;;12.80;99.90;;;;;;5054004;28;20604;-70
2022/09/21 11:45:56;;;;;;;3.80;2.60;;;12.90;99.90;;;;;;5053802;28;20213;-70
2022/09/21 11:48:35;;;;;;;3.10;2.80;;;12.90;99.90;;;;;;5053784;28;20209;-71
2022/09/21 11:51:18;;;;;;;3.47;2.93;;;13.00;99.90;;;;;;5053998;28;20193;-72
2022/09/21 11:54:02;;;;;;;2.73;2.50;;;13.10;99.90;;;;;;5053637;28;20248;-71
2022/09/21 11:56:49;;;;;;;6.37;2.70;;;13.20;99.90;;;;;;5053613;28;20193;-70
2022/09/21 11:59:41;;;;;;;2.87;2.47;;;13.30;99.90;;;;;;5053762;28;20293;-72
2022/09/21 12:02:42;;;;;;;2.70;2.50;;;13.50;99.90;;;;;;5053580;28;20698;-71
2022/09/21 12:05:19;;;;;;;3.60;2.70;;;13.50;99.90;;;;;;5053726;28;20220;-71
2022/09/21 12:08:16;;;;;;;2.60;2.40;;;13.50;99.90;;;;;;5052709;28;20200;-70
2022/09/21 12:10:52;;;;;;;3.47;2.47;;;13.40;99.90;;;;;;5053888;28;20228;-70
2022/09/21 12:13:28;;;;;;;2.60;2.40;;;13.50;99.90;;;;;;5053373;28;20212;-70
2022/09/21 12:16:05;;;;;;;4.93;2.97;;;13.50;99.90;;;;;;5053355;28;20731;-70
2022/09/21 12:18:41;;;;;;;5.27;2.90;;;13.50;99.90;;;;;;5053367;28;20577;-71
2022/09/21 12:21:15;;;;;;;3.77;2.57;;;13.50;99.90;;;;;;5053523;28;20209;-70
2022/09/21 12:23:46;;;;;;;3.53;2.57;;;13.40;99.90;;;;;;5053706;28;20711;-70
2022/09/21 12:26:17;;;;;;;5.07;2.73;;;13.30;99.90;;;;;;5053050;28;20257;-75
2022/09/21 12:28:49;;;;;;;5.67;3.47;;;13.30;99.90;;;;;;5053436;28;20200;-72
2022/09/21 12:31:23;;;;;;;4.60;3.57;;;13.30;99.90;;;;;;5052613;28;20331;-72
2022/09/21 12:33:53;;;;;;;5.97;3.90;;;13.30;99.90;;;;;;5053135;28;20284;-70
2022/09/21 12:36:25;;;;;;;4.97;3.47;;;13.30;99.90;;;;;;5052935;28;20602;-70
2022/09/21 12:39:01;;;;;;;4.50;3.20;;;13.20;99.90;;;;;;5052981;28;20289;-70
2022/09/21 12:41:38;;;;;;;4.33;3.20;;;13.00;99.90;;;;;;5052327;28;20221;-70
2022/09/21 12:44:15;;;;;;;3.43;2.97;;;12.90;99.90;;;;;;5052911;28;20528;-72
2022/09/21 12:46:47;;;;;;;3.20;2.90;;;12.80;99.90;;;;;;5052668;28;20197;-73
2022/09/21 12:49:20;;;;;;;3.63;2.80;;;12.90;99.90;;;;;;5052615;28;20287;-71
2022/09/21 12:51:53;;;;;;;3.00;2.70;;;12.90;99.90;;;;;;5052916;28;20193;-70
2022/09/21 12:54:30;;;;;;;4.93;3.20;;;12.80;99.90;;;;;;5053319;28;20729;-71
2022/09/21 12:57:04;;;;;;;5.10;4.43;;;12.80;99.90;;;;;;5053041;28;20223;-71
2022/09/21 12:59:37;;;;;;;4.20;3.10;;;12.90;99.90;;;;;;5052346;28;20241;-73
2022/09/21 13:02:18;;;;;;;4.37;2.93;;;12.80;99.90;;;;;;5052869;28;20204;-71
2022/09/21 13:04:53;;;;;;;3.50;2.70;;;12.70;99.90;;;;;;5052699;28;20189;-70
2022/09/21 13:07:38;;;;;;;3.20;2.90;;;12.70;99.90;;;;;;5052496;28;20244;-71
2022/09/21 13:10:20;;;;;;;2.80;2.50;;;12.60;99.90;;;;;;5052838;28;20194;-71
2022/09/21 13:12:53;;;;;;;4.37;2.70;;;12.60;99.90;;;;;;5050845;28;20709;-71